KTHV 170353Z AUTO 04005KT 10SM OVC055 22/17 A3005 RMK AO2 SLP175 T02170167